Time;durP1;ratioP1;P1;durP2;ratioP2;P2;SDS_P1;SDS_P2;PMS_P1;PMS_P2;Temp;Humidity;BMP_temperature;BMP_pressure;BME280_temperature;BME280_humidity;BME280_pressure;Samples;Min_cycle;Max_cycle;Signal;HPM_P1;HPM_P2
2022/02/10 00:05:57;;;;;;;17.70;8.10;;;;;;;2.11;81.75;99687.67;109119;1277;22560;-58
2022/02/10 00:16:36;;;;;;;17.30;8.10;;;;;;;2.07;81.89;99667.31;109159;1277;22447;-58
2022/02/10 00:21:46;;;;;;;18.60;9.10;;;;;;;2.08;82.33;99667.35;109132;1277;22435;-58
2022/02/10 00:35:19;;;;;;;15.00;7.80;;;;;;;2.14;83.34;99653.55;109121;1276;22469;-58
2022/02/10 00:37:58;;;;;;;13.10;7.90;;;;;;;2.15;83.38;99649.09;109096;1277;137796;-58
2022/02/10 00:40:36;;;;;;;17.10;7.70;;;;;;;2.17;83.69;99643.53;106730;1277;22608;-57
2022/02/10 00:43:05;;;;;;;14.50;7.70;;;;;;;2.17;83.83;99636.99;104403;1278;139653;-55
2022/02/10 00:45:34;;;;;;;12.70;7.30;;;;;;;2.19;83.91;99632.70;109068;1277;23729;-57
2022/02/10 00:48:05;;;;;;;15.90;8.40;;;;;;;2.19;84.17;99629.97;109120;1277;22515;-57
2022/02/10 00:50:35;;;;;;;15.20;8.10;;;;;;;2.19;84.24;99630.10;108991;1277;137513;-57
2022/02/10 00:53:12;;;;;;;18.10;10.50;;;;;;;2.19;84.43;99618.48;109164;1277;22418;-57
2022/02/10 00:55:42;;;;;;;16.00;9.00;;;;;;;2.18;84.64;99619.52;109019;1277;139250;-57
2022/02/10 00:58:14;;;;;;;12.70;8.00;;;;;;;2.18;84.65;99620.62;109154;1277;22499;-57
2022/02/10 01:24:29;;;;;;;14.80;8.40;;;;;;;2.23;86.05;99608.41;108989;1277;138766;-57
2022/02/10 01:31:14;;;;;;;12.50;8.00;;;;;;;2.40;87.11;99603.29;109031;1276;138026;-57
2022/02/10 01:33:43;;;;;;;13.00;8.00;;;;;;;2.42;87.23;99601.20;109107;1277;22587;-57
2022/02/10 01:36:11;;;;;;;15.20;8.20;;;;;;;2.44;87.32;99599.34;109005;1277;22447;-57
2022/02/10 01:38:39;;;;;;;12.50;7.40;;;;;;;2.45;87.54;99595.56;109062;1276;138834;-56
2022/02/10 01:58:23;;;;;;;14.40;8.30;;;;;;;2.56;88.17;99588.10;104767;1277;22744;-56
2022/02/10 02:03:38;;;;;;;12.00;7.70;;;;;;;2.57;88.16;99582.06;104689;1277;23964;-57
2022/02/10 02:06:11;;;;;;;9.90;7.00;;;;;;;2.57;88.45;99583.67;109002;1276;23862;-57
2022/02/10 02:08:40;;;;;;;15.30;7.70;;;;;;;2.55;88.40;99582.80;109023;1277;138888;-57
2022/02/10 02:11:08;;;;;;;11.50;7.90;;;;;;;2.59;88.53;99586.84;109170;1276;22497;-57
2022/02/10 02:13:36;;;;;;;14.20;8.30;;;;;;;2.61;88.58;99587.43;109024;1277;138115;-57
2022/02/10 02:16:05;;;;;;;11.90;7.50;;;;;;;2.62;88.56;99581.52;109102;1277;23322;-57
2022/02/10 02:18:33;;;;;;;10.90;7.50;;;;;;;2.64;88.59;99578.00;109408;1274;22656;-57
2022/02/10 02:21:01;;;;;;;10.80;7.20;;;;;;;2.64;88.78;99576.81;109300;1273;138171;-57
2022/02/10 02:23:29;;;;;;;12.20;9.00;;;;;;;2.68;88.90;99582.02;109351;1274;22432;-57
2022/02/10 02:26:07;;;;;;;17.40;9.50;;;;;;;2.69;88.94;99583.98;109294;1273;138543;-58
2022/02/10 02:28:41;;;;;;;12.50;8.40;;;;;;;2.72;89.15;99587.67;109348;1274;22514;-58
2022/02/10 02:31:14;;;;;;;14.70;9.00;;;;;;;2.74;89.13;99596.34;109246;1272;138169;-58
2022/02/10 03:04:23;;;;;;;11.50;7.40;;;;;;;2.98;90.31;99589.04;104954;1274;25307;-52
2022/02/10 03:06:50;;;;;;;10.50;7.00;;;;;;;3.00;90.50;99592.02;104832;1274;138469;-52
2022/02/10 03:09:24;;;;;;;10.90;7.70;;;;;;;3.02;90.51;99594.43;104919;1274;25296;-52
2022/02/10 03:11:53;;;;;;;10.80;7.20;;;;;;;3.04;90.64;99593.20;109393;1274;25325;-53
2022/02/10 03:14:28;;;;;;;10.40;7.70;;;;;;;3.07;90.64;99594.48;109283;1274;138549;-53
2022/02/10 04:14:49;;;;;;;16.90;11.10;;;;;;;3.52;91.43;99585.90;108421;1280;139244;-52
2022/02/10 04:20:38;;;;;;;15.00;10.40;;;;;;;3.56;91.52;99584.70;108347;1280;138480;-52
2022/02/10 04:28:44;;;;;;;18.90;11.70;;;;;;;3.58;91.60;99585.15;108696;1280;22485;-52
2022/02/10 05:04:30;;;;;;;19.80;12.80;;;;;;;3.66;91.26;99601.40;108800;1279;23205;-53
2022/02/10 05:33:55;;;;;;;52.70;24.10;;;;;;;3.68;91.12;99630.91;108189;1284;138633;-52
2022/02/10 05:36:26;;;;;;;51.90;24.40;;;;;;;3.70;91.06;99635.02;108091;1286;22489;-53
2022/02/10 05:39:21;;;;;;;57.80;27.40;;;;;;;3.71;91.06;99639.20;108556;1280;139800;-53
2022/02/10 05:55:15;;;;;;;24.30;15.00;;;;;;;3.75;90.73;99630.64;107967;1287;22504;-52
2022/02/10 05:57:50;;;;;;;22.00;15.30;;;;;;;3.76;90.45;99628.98;107945;1286;138783;-52
2022/02/10 07:50:06;;;;;;;20.80;14.00;;;;;;;4.46;89.63;99680.02;109442;1272;22612;-55
2022/02/10 08:49:53;;;;;;;23.00;12.60;;;;;;;4.91;87.67;99732.47;104184;1286;22587;-54
2022/02/10 08:55:33;;;;;;;17.20;12.00;;;;;;;4.90;87.46;99727.80;108309;1284;23134;-54
2022/02/10 09:03:47;;;;;;;15.40;11.00;;;;;;;4.93;87.53;99724.90;108262;1285;138961;-54
2022/02/10 09:12:13;;;;;;;14.40;10.50;;;;;;;4.96;87.13;99713.50;108392;1285;23425;-55
2022/02/10 09:55:44;;;;;;;17.40;11.60;;;;;;;5.39;86.05;99714.29;108331;1285;22465;-52
2022/02/10 10:01:27;;;;;;;16.20;11.40;;;;;;;5.42;85.78;99713.52;109035;1277;22466;-52
2022/02/10 10:04:04;;;;;;;18.70;11.50;;;;;;;5.43;85.72;99709.23;108970;1277;138758;-53
2022/02/10 10:12:06;;;;;;;;;;;;;;;5.48;85.55;99704.16;109158;1277;23236;-52
2022/02/10 10:14:42;;;;;;;19.50;11.60;;;;;;;5.50;85.37;99702.43;109168;1277;22494;-53
2022/02/10 10:23:15;;;;;;;18.00;12.30;;;;;;;5.57;84.76;99701.75;109021;1277;138575;-51
2022/02/10 10:50:57;;;;;;;13.80;10.10;;;;;;;5.67;84.30;99689.98;108466;1283;23097;-53
2022/02/10 10:56:15;;;;;;;17.00;11.10;;;;;;;5.68;84.10;99680.32;108475;1283;22481;-54
2022/02/10 12:36:24;;;;;;;70.90;30.80;;;;;;;5.65;83.32;99698.80;109221;1274;139838;-55
2022/02/10 12:39:10;;;;;;;42.20;21.20;;;;;;;5.65;83.30;99701.34;109304;1273;22546;-54
2022/02/10 14:14:11;;;;;;;16.60;8.90;;;;;;;5.48;82.69;99731.38;109265;1276;22511;-55
2022/02/10 14:18:40;;;;;;;17.50;11.30;;;;;;;5.43;82.47;99724.08;109119;1274;138407;-54
2022/02/10 14:21:16;;;;;;;16.00;9.90;;;;;;;5.40;82.56;99722.05;109158;1274;22377;-54
2022/02/10 14:26:36;;;;;;;13.10;8.60;;;;;;;5.38;82.36;99725.42;109231;1275;22430;-54
2022/02/10 14:29:03;;;;;;;16.70;8.90;;;;;;;5.37;82.28;99729.71;109109;1276;138308;-54
2022/02/10 14:31:31;;;;;;;18.00;9.10;;;;;;;5.36;82.17;99726.48;109206;1276;22469;-55
2022/02/10 14:33:59;;;;;;;16.10;10.10;;;;;;;5.36;82.22;99723.66;109206;1274;22430;-54
2022/02/10 14:36:47;;;;;;;16.60;10.40;;;;;;;5.35;82.13;99721.74;109096;1274;138212;-54
2022/02/10 14:39:35;;;;;;;16.90;10.00;;;;;;;5.32;81.90;99722.12;109092;1275;22607;-55
2022/02/10 14:42:36;;;;;;;17.10;10.20;;;;;;;5.29;81.98;99722.43;109043;1274;137519;-54
2022/02/10 15:46:24;;;;;;;30.10;18.60;;;;;;;4.35;83.55;99734.13;108577;1281;23525;-53
2022/02/10 15:51:32;;;;;;;43.40;23.70;;;;;;;4.31;83.76;99737.44;108599;1282;23324;-53
2022/02/10 16:11:01;;;;;;;28.80;17.80;;;;;;;4.03;83.94;99744.77;108126;1287;22474;-52
2022/02/10 16:18:58;;;;;;;20.10;14.60;;;;;;;3.96;84.09;99746.41;107984;1287;139111;-53
2022/02/10 16:21:33;;;;;;;23.90;15.90;;;;;;;3.96;84.44;99743.06;107975;1287;23179;-53
2022/02/10 16:24:05;;;;;;;22.40;14.50;;;;;;;3.96;84.47;99745.46;108384;1283;139941;-53
2022/02/10 16:26:41;;;;;;;23.20;14.90;;;;;;;3.96;84.31;99747.00;108580;1281;22487;-53
2022/02/10 16:29:17;;;;;;;21.50;13.80;;;;;;;3.95;84.28;99750.45;109122;1276;22517;-53
2022/02/10 16:31:45;;;;;;;21.10;13.90;;;;;;;3.95;84.42;99749.23;109133;1274;138549;-53
2022/02/10 16:34:18;;;;;;;21.00;13.20;;;;;;;3.95;84.18;99755.33;109197;1274;22505;-53
2022/02/10 16:36:53;;;;;;;23.80;15.30;;;;;;;3.94;84.23;99753.67;109006;1274;139851;-53
2022/02/10 16:39:26;;;;;;;21.50;15.30;;;;;;;3.92;84.05;99755.79;109078;1276;22598;-53
2022/02/10 16:42:02;;;;;;;22.20;15.50;;;;;;;3.89;84.07;99760.04;109049;1274;138283;-53
2022/02/10 16:44:36;;;;;;;24.80;15.80;;;;;;;3.86;84.00;99752.25;109169;1274;22581;-53
2022/02/10 16:47:10;;;;;;;24.00;16.30;;;;;;;3.82;83.74;99757.27;109172;1274;22437;-53
2022/02/10 16:49:50;;;;;;;26.60;17.10;;;;;;;3.76;83.69;99752.33;109010;1274;138124;-53
2022/02/10 16:52:30;;;;;;;30.60;20.30;;;;;;;3.70;83.52;99756.81;109165;1274;22523;-53
2022/02/10 17:03:36;;;;;;;21.40;15.20;;;;;;;3.53;83.77;99755.18;109154;1274;22556;-53
2022/02/10 17:25:35;;;;;;;24.40;17.40;;;;;;;3.25;84.18;99759.80;109078;1274;139220;-53
2022/02/10 17:28:06;;;;;;;26.10;17.50;;;;;;;3.20;84.49;99758.83;109211;1274;22457;-53
2022/02/10 17:33:39;;;;;;;24.50;16.10;;;;;;;3.12;84.70;99765.25;109218;1274;22433;-54
2022/02/10 17:36:12;;;;;;;26.00;16.60;;;;;;;3.10;84.90;99762.21;109096;1274;139814;-53
2022/02/10 17:52:18;;;;;;;24.10;16.60;;;;;;;3.04;85.74;99758.63;109169;1274;22489;-53
2022/02/10 17:54:47;;;;;;;24.00;16.60;;;;;;;3.04;85.90;99758.51;109017;1275;140174;-53
2022/02/10 17:57:19;;;;;;;25.90;16.80;;;;;;;3.02;86.03;99749.48;109198;1276;22874;-53
2022/02/10 17:59:47;;;;;;;27.80;17.80;;;;;;;3.03;86.11;99749.82;109043;1274;140930;-53
2022/02/10 18:02:15;;;;;;;27.30;17.80;;;;;;;3.03;86.30;99748.91;109157;1274;22561;-53
2022/02/10 18:04:43;;;;;;;30.60;18.80;;;;;;;3.03;86.34;99750.19;109137;1274;23344;-53
2022/02/10 18:07:13;;;;;;;29.20;19.20;;;;;;;3.01;86.37;99746.28;109028;1274;138455;-53
2022/02/10 18:11:06;;;;;;;31.30;20.70;;;;;;;3.03;86.45;99751.97;109073;1274;23252;-53
2022/02/10 18:15:32;;;;;;;27.80;18.20;;;;;;;3.02;86.56;99756.88;109144;1276;22473;-53
2022/02/10 18:18:11;;;;;;;29.40;20.40;;;;;;;3.00;86.60;99760.17;109056;1276;137934;-53
2022/02/10 18:20:47;;;;;;;30.60;20.50;;;;;;;2.98;86.44;99759.14;109160;1276;23347;-53
2022/02/10 18:23:30;;;;;;;27.90;19.20;;;;;;;2.97;86.62;99755.73;109067;1277;23309;-53
2022/02/10 18:26:12;;;;;;;26.30;18.10;;;;;;;2.95;86.52;99759.38;109015;1276;139838;-53
2022/02/10 19:02:11;;;;;;;25.20;17.00;;;;;;;2.90;87.05;99740.87;109060;1274;138152;-52
2022/02/10 19:09:40;;;;;;;26.40;18.30;;;;;;;2.89;87.04;99731.36;109129;1274;22480;-53
2022/02/10 19:12:16;;;;;;;26.30;18.10;;;;;;;2.89;86.95;99728.73;109057;1274;138418;-52
2022/02/10 19:14:52;;;;;;;30.40;19.20;;;;;;;2.87;86.92;99723.80;109266;1275;23105;-53
2022/02/10 19:17:22;;;;;;;28.50;19.00;;;;;;;2.86;86.94;99722.16;109199;1274;23882;-52
2022/02/10 19:19:50;;;;;;;32.80;19.50;;;;;;;2.84;86.92;99722.95;109028;1275;138398;-52
2022/02/10 19:22:19;;;;;;;31.90;20.60;;;;;;;2.82;86.90;99722.48;109189;1274;22430;-52
2022/02/10 19:24:47;;;;;;;31.20;20.80;;;;;;;2.81;86.82;99722.65;109087;1274;138732;-53
2022/02/10 19:27:16;;;;;;;31.50;19.60;;;;;;;2.80;86.91;99719.54;109274;1274;23141;-52
2022/02/10 19:29:44;;;;;;;28.80;18.40;;;;;;;2.79;86.72;99724.70;109223;1274;22483;-52
2022/02/10 19:32:16;;;;;;;37.80;22.50;;;;;;;2.78;86.77;99725.20;109117;1276;137633;-52
2022/02/10 19:34:47;;;;;;;36.80;22.60;;;;;;;2.77;86.86;99725.19;109292;1274;23246;-52
2022/02/10 19:37:22;;;;;;;41.20;25.10;;;;;;;2.76;86.95;99729.53;109102;1274;139068;-52
2022/02/10 19:39:57;;;;;;;39.60;23.20;;;;;;;2.75;86.72;99727.92;109314;1274;22419;-52
2022/02/10 19:42:28;;;;;;;40.50;25.70;;;;;;;2.73;86.81;99723.30;109143;1274;138192;-52
2022/02/10 19:45:00;;;;;;;39.80;24.00;;;;;;;2.71;86.88;99720.23;109329;1274;22535;-52
2022/02/10 19:47:29;;;;;;;37.70;22.50;;;;;;;2.64;86.89;99712.30;109223;1274;22416;-52
2022/02/10 19:49:57;;;;;;;36.70;23.20;;;;;;;2.68;86.84;99723.31;109251;1274;138671;-52
2022/02/10 19:52:26;;;;;;;36.50;23.70;;;;;;;2.66;86.74;99718.55;109319;1274;22454;-52
2022/02/10 19:54:55;;;;;;;34.60;24.20;;;;;;;2.63;86.75;99719.44;109130;1274;137476;-52
2022/02/10 19:57:25;;;;;;;33.80;22.40;;;;;;;2.58;86.49;99718.24;109338;1274;22461;-52
2022/02/10 19:59:54;;;;;;;34.30;24.60;;;;;;;2.51;86.34;99721.72;109178;1274;137533;-53
2022/02/10 20:02:24;;;;;;;39.10;25.30;;;;;;;2.45;86.28;99723.73;109273;1274;23711;-53
2022/02/10 20:04:55;;;;;;;33.70;23.20;;;;;;;2.40;86.26;99728.92;109258;1274;22417;-52
2022/02/10 20:07:24;;;;;;;37.70;22.70;;;;;;;2.36;86.29;99721.66;109205;1274;138065;-52
2022/02/10 20:09:52;;;;;;;33.60;23.30;;;;;;;2.32;86.20;99719.06;109364;1274;22522;-53
2022/02/10 20:12:20;;;;;;;35.50;22.60;;;;;;;2.24;86.09;99713.88;109141;1274;139930;-52
2022/02/10 20:14:51;;;;;;;32.30;22.80;;;;;;;2.18;85.91;99711.55;109251;1274;22463;-52
2022/02/10 20:17:21;;;;;;;37.30;23.70;;;;;;;2.10;85.86;99710.79;109276;1274;22473;-53
2022/02/10 20:19:49;;;;;;;37.00;24.30;;;;;;;2.05;85.88;99708.84;109192;1275;138578;-52
2022/02/10 20:22:16;;;;;;;34.40;23.50;;;;;;;2.01;85.94;99710.23;109306;1276;22254;-52
2022/02/10 20:24:45;;;;;;;35.60;24.30;;;;;;;1.99;86.11;99710.36;109089;1274;139222;-52
2022/02/10 20:27:13;;;;;;;40.40;25.10;;;;;;;1.96;86.07;99711.78;109374;1274;22462;-52
2022/02/10 20:29:41;;;;;;;38.10;23.50;;;;;;;1.95;86.10;99708.54;109305;1274;22528;-52
2022/02/10 20:32:09;;;;;;;37.40;25.20;;;;;;;1.94;86.38;99712.38;109191;1274;137705;-53
2022/02/10 20:34:37;;;;;;;34.90;24.70;;;;;;;1.94;86.37;99711.91;109318;1274;22417;-52
2022/02/10 20:37:05;;;;;;;39.10;24.20;;;;;;;1.92;86.49;99714.64;109084;1275;138587;-52
2022/02/10 20:39:34;;;;;;;40.30;26.80;;;;;;;1.89;86.60;99711.84;108524;1274;24231;-53
2022/02/10 20:42:07;;;;;;;40.70;26.80;;;;;;;1.87;86.70;99710.98;104685;1276;137584;-53
2022/02/10 20:46:52;;;;;;;45.50;28.80;;;;;;;1.82;86.30;99701.73;101652;1310;545301;-53
2022/02/10 20:49:26;;;;;;;46.00;29.20;;;;;;;1.76;86.32;99699.33;108229;1285;137750;-54
2022/02/10 20:51:55;;;;;;;45.70;28.40;;;;;;;1.72;86.26;99700.05;108146;1287;22496;-54
2022/02/10 20:54:24;;;;;;;42.00;25.50;;;;;;;1.69;86.47;99697.96;108122;1287;140097;-54
2022/02/10 20:56:52;;;;;;;40.60;26.10;;;;;;;1.68;86.71;99699.99;108215;1287;23181;-54
2022/02/10 20:59:38;;;;;;;47.00;27.80;;;;;;;1.69;86.89;99698.43;108050;1287;165688;-54
2022/02/10 21:02:13;;;;;;;41.40;24.40;;;;;;;1.71;87.19;99693.12;108213;1285;137260;-54
2022/02/10 21:07:27;;;;;;;43.80;26.50;;;;;;;1.76;87.51;99688.76;108247;1284;138605;-54
2022/02/10 21:10:01;;;;;;;43.60;26.80;;;;;;;1.78;87.47;99687.94;108335;1286;22523;-54
2022/02/10 21:12:34;;;;;;;49.80;27.70;;;;;;;1.78;87.46;99690.09;108278;1286;138817;-54
2022/02/10 21:15:06;;;;;;;61.10;30.10;;;;;;;1.76;87.61;99686.61;108405;1285;23682;-54
2022/02/10 21:17:34;;;;;;;60.10;30.40;;;;;;;1.80;87.58;99689.15;108422;1285;22474;-54
2022/02/10 21:20:04;;;;;;;56.50;28.50;;;;;;;1.81;87.63;99679.48;108115;1286;139353;-55
2022/02/10 21:22:37;;;;;;;52.90;28.10;;;;;;;1.86;87.92;99675.35;108357;1286;22482;-54
2022/02/10 21:25:18;;;;;;;48.80;28.70;;;;;;;1.88;87.87;99668.20;108282;1286;138713;-54
2022/02/10 21:27:49;;;;;;;43.90;26.50;;;;;;;1.93;88.16;99664.64;108323;1284;22499;-54
2022/02/10 21:30:17;;;;;;;48.60;25.00;;;;;;;1.95;88.05;99655.27;108247;1286;137554;-54
2022/02/10 21:38:08;;;;;;;37.80;23.30;;;;;;;1.98;88.20;99650.58;108180;1286;138124;-54
2022/02/10 21:41:13;;;;;;;34.60;20.10;;;;;;;2.00;88.34;99650.75;108326;1285;22437;-54
2022/02/10 21:57:22;;;;;;;54.70;32.30;;;;;;;2.09;88.38;99643.62;108227;1286;23827;-54
2022/02/10 22:19:13;;;;;;;36.60;24.00;;;;;;;2.16;88.37;99636.13;108223;1286;137322;-53
2022/02/10 22:21:44;;;;;;;41.10;26.50;;;;;;;2.14;88.42;99635.98;108255;1285;22472;-53
2022/02/10 22:24:15;;;;;;;40.10;25.80;;;;;;;2.14;88.41;99630.22;108129;1286;137313;-54
2022/02/10 22:26:44;;;;;;;55.70;30.40;;;;;;;2.12;88.28;99633.64;108288;1286;23159;-54
2022/02/10 22:29:23;;;;;;;44.10;27.20;;;;;;;2.13;88.17;99632.73;108255;1285;22450;-54
2022/02/10 22:36:54;;;;;;;48.60;28.50;;;;;;;2.13;88.28;99627.90;108123;1285;137787;-54
2022/02/10 22:39:22;;;;;;;52.80;28.70;;;;;;;2.13;88.26;99629.80;108303;1286;22537;-53
2022/02/10 22:41:50;;;;;;;50.40;30.00;;;;;;;2.14;88.49;99632.38;108160;1285;139627;-53
2022/02/10 22:44:18;;;;;;;44.00;27.20;;;;;;;2.15;88.40;99622.30;108135;1285;22487;-54
2022/02/10 22:46:46;;;;;;;41.60;27.90;;;;;;;2.17;88.39;99621.87;108294;1285;22612;-52
2022/02/10 22:49:14;;;;;;;48.00;28.90;;;;;;;2.16;88.31;99621.59;108185;1286;137708;-52
2022/02/10 22:51:42;;;;;;;45.00;27.50;;;;;;;2.15;88.28;99620.80;108269;1286;22494;-52
2022/02/10 22:54:13;;;;;;;45.60;27.10;;;;;;;2.16;88.41;99618.52;108140;1285;139247;-52
2022/02/10 22:56:43;;;;;;;44.60;28.20;;;;;;;2.19;88.38;99622.94;108229;1285;22552;-52
2022/02/10 22:59:19;;;;;;;46.20;27.20;;;;;;;2.23;88.42;99621.89;108279;1286;22691;-53
2022/02/10 23:01:47;;;;;;;42.30;26.00;;;;;;;2.26;88.54;99623.52;108151;1285;139071;-52
2022/02/10 23:04:15;;;;;;;41.90;24.50;;;;;;;2.30;88.50;99621.34;108249;1286;23627;-52
2022/02/10 23:06:43;;;;;;;39.50;23.50;;;;;;;2.33;88.67;99621.75;108196;1286;137686;-52
2022/02/10 23:09:26;;;;;;;38.30;24.60;;;;;;;2.36;88.77;99623.54;108295;1286;22592;-52
2022/02/10 23:11:54;;;;;;;42.00;24.40;;;;;;;2.40;88.77;99620.45;108126;1285;140841;-53
2022/02/10 23:14:25;;;;;;;40.50;24.60;;;;;;;2.43;88.84;99625.23;108303;1285;22676;-52
2022/02/10 23:16:53;;;;;;;38.00;24.30;;;;;;;2.46;88.76;99628.48;109001;1277;22420;-52
2022/02/10 23:19:22;;;;;;;36.90;22.90;;;;;;;2.46;88.77;99625.42;108984;1277;138697;-53
2022/02/10 23:21:50;;;;;;;36.20;23.00;;;;;;;2.46;88.52;99631.46;108952;1277;22447;-52
2022/02/10 23:24:18;;;;;;;38.10;23.70;;;;;;;2.44;88.60;99628.71;108890;1276;138675;-53
2022/02/10 23:26:46;;;;;;;38.10;24.30;;;;;;;2.43;88.64;99628.47;108979;1277;24965;-52
2022/02/10 23:29:14;;;;;;;36.20;23.20;;;;;;;2.43;88.52;99626.55;109110;1277;22414;-52
2022/02/10 23:31:43;;;;;;;36.20;22.40;;;;;;;2.42;88.45;99628.03;108816;1277;137155;-52
2022/02/10 23:34:11;;;;;;;37.90;24.00;;;;;;;2.41;88.48;99625.39;109027;1277;22517;-52
2022/02/10 23:39:23;;;;;;;36.20;23.20;;;;;;;2.44;88.54;99623.45;109003;1277;23280;-53
2022/02/10 23:44:30;;;;;;;32.70;20.50;;;;;;;2.48;88.62;99614.02;109049;1277;22449;-52
2022/02/10 23:46:59;;;;;;;33.60;20.30;;;;;;;2.53;88.83;99610.88;109074;1277;22603;-52
2022/02/10 23:49:29;;;;;;;40.60;22.30;;;;;;;2.55;88.81;99603.98;108928;1277;138531;-52
2022/02/10 23:52:02;;;;;;;29.50;19.60;;;;;;;2.59;88.79;99604.78;108975;1277;22531;-52
2022/02/10 23:54:41;;;;;;;33.00;20.60;;;;;;;2.63;88.92;99606.92;108940;1277;138052;-52
2022/02/10 23:57:23;;;;;;;31.40;18.60;;;;;;;2.66;89.03;99607.76;109115;1277;22459;-52
